createdAt,value
2018-07-27T00:00:08.708Z,3.00
2018-07-27T00:00:41.934Z,2.98
2018-07-27T00:01:15.539Z,2.80
2018-07-27T00:01:49.676Z,2.70
2018-07-27T00:02:23.772Z,2.70
2018-07-27T00:03:02.771Z,2.70
2018-07-27T00:03:36.380Z,3.05
2018-07-27T00:04:09.600Z,2.62
2018-07-27T00:04:43.123Z,2.40
2018-07-27T00:05:16.675Z,2.45
2018-07-27T00:05:50.226Z,3.12
2018-07-27T00:06:23.774Z,3.10
2018-07-27T00:06:58.079Z,2.87
2018-07-27T00:07:31.589Z,2.87
2018-07-27T00:08:05.210Z,3.05
2018-07-27T00:08:38.751Z,2.60
2018-07-27T00:09:13.456Z,2.90
2018-07-27T00:09:47.021Z,2.65
2018-07-27T00:10:20.732Z,2.58
2018-07-27T00:10:54.308Z,2.60
2018-07-27T00:11:27.952Z,2.62
2018-07-27T00:12:01.504Z,2.70
2018-07-27T00:12:35.587Z,2.67
2018-07-27T00:13:09.153Z,2.80
2018-07-27T00:13:42.854Z,3.02
2018-07-27T00:14:16.472Z,2.70
2018-07-27T00:14:50.065Z,2.70
2018-07-27T00:15:23.635Z,2.60
2018-07-27T00:15:57.224Z,2.90
2018-07-27T00:16:30.744Z,2.60
2018-07-27T00:17:04.308Z,2.65
2018-07-27T00:17:37.868Z,2.80
2018-07-27T00:18:11.376Z,2.70
2018-07-27T00:18:44.881Z,2.72
2018-07-27T00:19:18.485Z,2.72
2018-07-27T00:19:51.990Z,2.70
2018-07-27T00:20:25.560Z,2.20
2018-07-27T00:20:59.115Z,2.47
2018-07-27T00:21:32.990Z,2.40
2018-07-27T00:22:06.608Z,2.62
2018-07-27T00:22:40.623Z,2.60
2018-07-27T00:23:14.204Z,2.50
2018-07-27T00:23:47.700Z,2.50
2018-07-27T00:24:21.297Z,2.45
2018-07-27T00:24:54.838Z,2.70
2018-07-27T00:25:29.257Z,2.75
2018-07-27T00:26:02.988Z,2.42
2018-07-27T00:26:36.733Z,2.33
2018-07-27T00:27:10.267Z,2.40
2018-07-27T00:27:43.949Z,2.58
2018-07-27T00:28:17.117Z,2.25
2018-07-27T00:28:50.329Z,2.47
2018-07-27T00:29:23.886Z,2.22
2018-07-27T00:29:57.453Z,2.52
2018-07-27T00:30:30.988Z,2.75
2018-07-27T00:31:04.556Z,2.40
2018-07-27T00:31:38.071Z,2.80
2018-07-27T00:32:11.586Z,2.15
2018-07-27T00:32:45.193Z,2.70
2018-07-27T00:33:18.784Z,2.80
2018-07-27T00:33:52.888Z,2.85
2018-07-27T00:34:26.445Z,2.47
2018-07-27T00:34:59.986Z,2.30
2018-07-27T00:35:33.503Z,2.92
2018-07-27T00:36:07.066Z,2.72
2018-07-27T00:36:40.700Z,2.58
2018-07-27T00:37:14.619Z,2.40
2018-07-27T00:37:48.123Z,2.80
2018-07-27T00:38:21.664Z,2.80
2018-07-27T00:38:55.259Z,2.50
2018-07-27T00:39:28.813Z,2.30
2018-07-27T00:40:02.383Z,2.80
2018-07-27T00:40:35.944Z,2.58
2018-07-27T00:41:09.480Z,2.80
2018-07-27T00:41:42.978Z,2.62
2018-07-27T00:42:16.568Z,2.50
2018-07-27T00:42:50.067Z,2.60
2018-07-27T00:43:23.621Z,2.50
2018-07-27T00:43:57.151Z,2.58
2018-07-27T00:44:30.691Z,2.65
2018-07-27T00:45:04.431Z,2.72
2018-07-27T00:45:37.952Z,2.70
2018-07-27T00:46:11.472Z,2.42
2018-07-27T00:46:45.520Z,2.90
2018-07-27T00:47:19.147Z,2.90
2018-07-27T00:47:52.808Z,2.70
2018-07-27T00:48:26.364Z,2.60
2018-07-27T00:49:00.407Z,2.80
2018-07-27T00:49:33.943Z,2.87
2018-07-27T00:50:07.810Z,2.50
2018-07-27T00:50:41.360Z,2.60
2018-07-27T00:51:15.007Z,2.70
2018-07-27T00:51:48.504Z,2.67
2018-07-27T00:52:21.991Z,2.67
2018-07-27T00:52:55.526Z,2.93
2018-07-27T00:53:29.035Z,2.77
2018-07-27T00:54:02.600Z,2.30
2018-07-27T00:54:36.141Z,2.90
2018-07-27T00:55:09.727Z,3.00
2018-07-27T00:55:42.947Z,2.50
2018-07-27T00:56:16.490Z,2.75
2018-07-27T00:56:50.057Z,2.70
2018-07-27T00:57:23.620Z,2.75
2018-07-27T00:57:57.252Z,2.80
2018-07-27T00:58:30.809Z,2.90
2018-07-27T00:59:04.364Z,2.70
2018-07-27T00:59:37.927Z,2.60
2018-07-27T01:00:11.621Z,2.67
2018-07-27T01:00:45.147Z,2.70
2018-07-27T01:01:18.674Z,2.60
2018-07-27T01:01:51.908Z,2.62
2018-07-27T01:02:25.419Z,2.87
2018-07-27T01:02:59.035Z,3.02
2018-07-27T01:03:32.556Z,3.25
2018-07-27T01:04:06.105Z,3.33
2018-07-27T01:04:39.608Z,2.67
2018-07-27T01:05:13.145Z,3.25
2018-07-27T01:05:46.685Z,2.95
2018-07-27T01:06:20.242Z,2.85
2018-07-27T01:06:53.795Z,2.93
2018-07-27T01:07:27.440Z,2.77
2018-07-27T01:08:00.947Z,2.65
2018-07-27T01:08:35.165Z,2.50
2018-07-27T01:09:10.219Z,3.30
2018-07-27T01:09:43.793Z,2.50
2018-07-27T01:10:17.416Z,2.92
2018-07-27T01:10:50.979Z,2.95
2018-07-27T01:11:24.514Z,2.45
2018-07-27T01:11:58.083Z,2.90
2018-07-27T01:12:31.707Z,3.00
2018-07-27T01:13:05.260Z,3.05
2018-07-27T01:13:38.805Z,3.08
2018-07-27T01:14:12.352Z,2.58
2018-07-27T01:14:45.895Z,2.87
2018-07-27T01:15:19.395Z,2.50
2018-07-27T01:15:52.921Z,2.92
2018-07-27T01:16:26.484Z,2.87
2018-07-27T01:17:00.039Z,2.85
2018-07-27T01:17:33.588Z,3.02
2018-07-27T01:18:07.823Z,2.90
2018-07-27T01:18:41.362Z,2.87
2018-07-27T01:19:14.990Z,2.92
2018-07-27T01:19:48.606Z,3.00
2018-07-27T01:20:22.934Z,3.00
2018-07-27T01:20:56.466Z,2.80
2018-07-27T01:21:29.976Z,2.37
2018-07-27T01:22:03.590Z,2.77
2018-07-27T01:22:38.247Z,2.86
2018-07-27T01:23:11.787Z,2.72
2018-07-27T01:23:45.350Z,2.87
2018-07-27T01:24:18.853Z,3.27
2018-07-27T01:24:52.426Z,3.12
2018-07-27T01:25:25.980Z,3.35
2018-07-27T01:25:59.615Z,2.90
2018-07-27T01:26:33.127Z,2.80
2018-07-27T01:27:06.701Z,2.80
2018-07-27T01:27:41.093Z,2.70
2018-07-27T01:28:14.282Z,2.60
2018-07-27T01:28:47.509Z,2.93
2018-07-27T01:29:21.064Z,2.52
2018-07-27T01:29:54.595Z,2.55
2018-07-27T01:30:28.162Z,3.00
2018-07-27T01:31:01.744Z,2.85
2018-07-27T01:31:35.312Z,2.75
2018-07-27T01:32:08.797Z,2.62
2018-07-27T01:32:43.298Z,2.67
2018-07-27T01:33:16.868Z,3.12
2018-07-27T01:33:50.697Z,2.72
2018-07-27T01:34:24.244Z,2.98
2018-07-27T01:34:57.873Z,2.83
2018-07-27T01:35:31.497Z,2.77
2018-07-27T01:36:05.422Z,2.70
2018-07-27T01:36:38.962Z,3.00
2018-07-27T01:37:12.520Z,2.90
2018-07-27T01:37:46.039Z,2.60
2018-07-27T01:38:19.544Z,2.67
2018-07-27T01:38:53.097Z,2.98
2018-07-27T01:39:26.618Z,2.80
2018-07-27T01:40:00.157Z,2.80
2018-07-27T01:40:33.700Z,2.80
2018-07-27T01:41:07.280Z,2.90
2018-07-27T01:41:41.042Z,3.37
2018-07-27T01:42:14.672Z,3.12
2018-07-27T01:42:48.260Z,2.92
2018-07-27T01:43:21.821Z,3.40
2018-07-27T01:43:55.492Z,2.95
2018-07-27T01:44:29.031Z,3.00
2018-07-27T01:45:02.179Z,2.80
2018-07-27T01:45:35.734Z,3.15
2018-07-27T01:46:09.894Z,3.12
2018-07-27T01:46:44.564Z,3.03
2018-07-27T01:47:18.133Z,2.75
2018-07-27T01:47:51.717Z,3.05
2018-07-27T01:48:25.264Z,2.98
2018-07-27T01:48:58.856Z,2.83
2018-07-27T01:49:32.393Z,3.08
2018-07-27T01:50:06.060Z,3.10
2018-07-27T01:50:39.619Z,3.00
2018-07-27T01:51:13.171Z,3.15
2018-07-27T01:51:46.719Z,2.85
2018-07-27T01:52:20.312Z,2.92
2018-07-27T01:52:53.872Z,3.07
2018-07-27T01:53:27.806Z,2.98
2018-07-27T01:54:01.333Z,3.15
2018-07-27T01:54:35.767Z,2.83
2018-07-27T01:55:09.454Z,3.00
2018-07-27T01:55:43.062Z,3.10
2018-07-27T01:56:16.574Z,3.02
2018-07-27T01:56:50.094Z,2.90
2018-07-27T01:57:23.643Z,2.75
2018-07-27T01:57:57.288Z,3.17
2018-07-27T01:58:30.554Z,2.85
2018-07-27T01:59:04.180Z,3.12
2018-07-27T01:59:37.738Z,3.00
2018-07-27T02:00:11.364Z,3.33
2018-07-27T02:00:44.992Z,3.13
2018-07-27T02:01:18.544Z,3.08
2018-07-27T02:01:52.535Z,3.10
2018-07-27T02:02:26.136Z,3.25
2018-07-27T02:02:59.745Z,2.80
2018-07-27T02:03:33.364Z,3.02
2018-07-27T02:04:06.981Z,3.10
2018-07-27T02:04:40.573Z,2.90
2018-07-27T02:05:14.119Z,3.00
2018-07-27T02:05:48.238Z,3.10
2018-07-27T02:06:21.800Z,3.17
2018-07-27T02:06:55.307Z,3.30
2018-07-27T02:07:28.827Z,3.30
2018-07-27T02:08:02.368Z,3.00
2018-07-27T02:08:35.928Z,3.25
2018-07-27T02:09:10.383Z,2.72
2018-07-27T02:09:44.016Z,3.00
2018-07-27T02:10:17.580Z,2.62
2018-07-27T02:10:51.161Z,3.20
2018-07-27T02:11:24.706Z,3.17
2018-07-27T02:11:58.219Z,3.17
2018-07-27T02:12:31.757Z,3.35
2018-07-27T02:13:05.297Z,2.95
2018-07-27T02:13:39.150Z,3.20
2018-07-27T02:14:12.677Z,2.80
2018-07-27T02:14:46.223Z,2.62
2018-07-27T02:15:19.760Z,3.20
2018-07-27T02:15:53.351Z,3.10
2018-07-27T02:16:26.844Z,2.95
2018-07-27T02:17:00.547Z,2.95
2018-07-27T02:17:34.152Z,3.12
2018-07-27T02:18:08.459Z,3.10
2018-07-27T02:18:42.023Z,2.65
2018-07-27T02:19:15.694Z,3.33
2018-07-27T02:19:49.232Z,3.10
2018-07-27T02:20:22.920Z,3.00
2018-07-27T02:20:57.179Z,2.90
2018-07-27T02:21:30.740Z,2.90
2018-07-27T02:22:03.991Z,3.05
2018-07-27T02:22:37.853Z,3.10
2018-07-27T02:23:11.380Z,3.22
2018-07-27T02:23:45.527Z,2.60
2018-07-27T02:24:19.107Z,2.77
2018-07-27T02:24:52.982Z,3.53
2018-07-27T02:25:26.543Z,2.60
2018-07-27T02:26:00.787Z,3.17
2018-07-27T02:26:34.256Z,3.08
2018-07-27T02:27:07.738Z,3.20
2018-07-27T02:27:40.963Z,2.80
2018-07-27T02:28:15.177Z,3.02
2018-07-27T02:28:48.654Z,3.13
2018-07-27T02:29:22.216Z,2.83
2018-07-27T02:29:55.801Z,3.58
2018-07-27T02:30:29.836Z,3.05
2018-07-27T02:31:03.421Z,3.10
2018-07-27T02:31:36.971Z,3.08
2018-07-27T02:32:10.581Z,3.40
2018-07-27T02:32:44.816Z,3.20
2018-07-27T02:33:18.321Z,3.10
2018-07-27T02:33:51.947Z,3.02
2018-07-27T02:34:25.461Z,2.77
2018-07-27T02:34:59.042Z,3.12
2018-07-27T02:35:32.568Z,3.27
2018-07-27T02:36:06.123Z,3.30
2018-07-27T02:36:40.307Z,2.90
2018-07-27T02:37:13.824Z,2.98
2018-07-27T02:37:47.312Z,3.33
2018-07-27T02:38:20.882Z,2.77
2018-07-27T02:38:54.419Z,3.30
2018-07-27T02:39:28.003Z,3.25
2018-07-27T02:40:01.706Z,3.50
2018-07-27T02:40:35.684Z,3.08
2018-07-27T02:41:09.207Z,3.42
2018-07-27T02:41:42.804Z,3.08
2018-07-27T02:42:16.339Z,2.98
2018-07-27T02:42:49.924Z,2.97
2018-07-27T02:43:23.515Z,3.10
2018-07-27T02:43:56.994Z,3.27
2018-07-27T02:44:30.531Z,3.40
2018-07-27T02:45:04.180Z,3.10
2018-07-27T02:45:37.791Z,3.02
2018-07-27T02:46:11.366Z,3.00
2018-07-27T02:46:44.971Z,3.03
2018-07-27T02:47:18.518Z,3.22
2018-07-27T02:47:52.056Z,3.22
2018-07-27T02:48:25.953Z,3.20
2018-07-27T02:48:59.680Z,3.22
2018-07-27T02:49:33.213Z,3.17
2018-07-27T02:50:07.095Z,3.33
2018-07-27T02:50:40.676Z,3.12
2018-07-27T02:51:14.592Z,3.27
2018-07-27T02:51:48.131Z,3.45
2018-07-27T02:52:21.746Z,3.27
2018-07-27T02:52:55.297Z,3.23
2018-07-27T02:53:28.921Z,2.90
2018-07-27T02:54:02.453Z,3.10
2018-07-27T02:54:36.027Z,3.10
2018-07-27T02:55:09.597Z,3.20
2018-07-27T02:55:43.697Z,3.33
2018-07-27T02:56:17.234Z,3.22
2018-07-27T02:56:50.809Z,3.00
2018-07-27T02:57:24.412Z,3.40
2018-07-27T02:57:57.976Z,2.87
2018-07-27T02:58:31.523Z,3.52
2018-07-27T02:59:05.025Z,3.15
2018-07-27T02:59:38.601Z,3.00
2018-07-27T03:00:12.697Z,3.83
2018-07-27T03:00:46.289Z,3.20
2018-07-27T03:01:19.848Z,3.58
2018-07-27T03:01:53.187Z,3.10
2018-07-27T03:02:26.772Z,3.58
2018-07-27T03:03:00.485Z,3.52
2018-07-27T03:03:34.053Z,3.67
2018-07-27T03:04:07.623Z,3.40
2018-07-27T03:04:41.584Z,3.40
2018-07-27T03:05:15.114Z,3.22
2018-07-27T03:05:48.687Z,3.20
2018-07-27T03:06:22.242Z,3.70
2018-07-27T03:06:55.874Z,3.30
2018-07-27T03:07:29.384Z,3.50
2018-07-27T03:08:03.544Z,3.40
2018-07-27T03:08:37.124Z,3.60
2018-07-27T03:09:11.481Z,3.15
2018-07-27T03:09:45.088Z,3.08
2018-07-27T03:10:18.672Z,2.87
2018-07-27T03:10:52.738Z,3.08
2018-07-27T03:11:26.276Z,3.22
2018-07-27T03:11:59.583Z,3.35
2018-07-27T03:12:33.127Z,3.55
2018-07-27T03:13:06.710Z,3.20
2018-07-27T03:13:40.251Z,3.27
2018-07-27T03:14:13.802Z,3.47
2018-07-27T03:14:47.328Z,3.50
2018-07-27T03:15:20.855Z,3.22
2018-07-27T03:15:54.404Z,3.35
2018-07-27T03:16:28.012Z,3.42
2018-07-27T03:17:01.584Z,3.00
2018-07-27T03:17:35.155Z,2.95
2018-07-27T03:18:08.692Z,3.12
2018-07-27T03:18:43.123Z,3.35
2018-07-27T03:19:16.685Z,2.90
2018-07-27T03:19:50.251Z,3.40
2018-07-27T03:20:23.811Z,3.00
2018-07-27T03:20:58.035Z,3.00
2018-07-27T03:21:31.582Z,3.15
2018-07-27T03:22:05.108Z,3.33
2018-07-27T03:22:38.611Z,2.87
2018-07-27T03:23:12.212Z,3.17
2018-07-27T03:23:45.433Z,3.27
2018-07-27T03:24:19.125Z,2.92
2018-07-27T03:24:53.172Z,3.20
2018-07-27T03:25:27.679Z,3.00
2018-07-27T03:26:01.197Z,2.75
2018-07-27T03:26:34.382Z,3.20
2018-07-27T03:27:07.960Z,2.90
2018-07-27T03:27:41.518Z,2.92
2018-07-27T03:28:15.101Z,3.02
2018-07-27T03:28:48.618Z,3.17
2018-07-27T03:29:22.224Z,3.00
2018-07-27T03:29:55.820Z,2.98
2018-07-27T03:30:30.534Z,3.10
2018-07-27T03:31:06.029Z,3.00
2018-07-27T03:31:39.553Z,3.33
2018-07-27T03:32:13.107Z,3.30
2018-07-27T03:32:46.679Z,2.90
2018-07-27T03:33:21.202Z,3.70
2018-07-27T03:33:55.524Z,3.72
2018-07-27T03:34:29.078Z,3.20
2018-07-27T03:35:02.615Z,3.20
2018-07-27T03:35:36.246Z,3.15
2018-07-27T03:36:09.855Z,3.40
2018-07-27T03:36:43.420Z,3.00
2018-07-27T03:37:16.946Z,3.27
2018-07-27T03:37:50.554Z,3.25
2018-07-27T03:38:24.149Z,3.22
2018-07-27T03:38:57.763Z,3.22
2018-07-27T03:39:31.367Z,3.33
2018-07-27T03:40:05.523Z,3.58
2018-07-27T03:40:39.893Z,3.10
2018-07-27T03:41:14.759Z,3.20
2018-07-27T03:41:48.316Z,3.47
2018-07-27T03:42:21.873Z,3.10
2018-07-27T03:42:55.412Z,3.50
2018-07-27T03:43:29.819Z,3.22
2018-07-27T03:44:10.577Z,3.33
2018-07-27T03:44:44.844Z,3.40
2018-07-27T03:45:18.374Z,3.50
2018-07-27T03:45:51.953Z,3.90
2018-07-27T03:46:26.200Z,4.12
2018-07-27T03:46:59.765Z,3.40
2018-07-27T03:47:33.350Z,3.40
2018-07-27T03:48:09.268Z,3.33
2018-07-27T03:48:42.817Z,3.37
2018-07-27T03:49:16.362Z,3.37
2018-07-27T03:49:49.963Z,3.40
2018-07-27T03:50:23.491Z,3.27
2018-07-27T03:50:57.093Z,3.52
2018-07-27T03:51:30.606Z,3.90
2018-07-27T03:52:04.288Z,3.50
2018-07-27T03:52:38.172Z,3.38
2018-07-27T03:53:11.687Z,3.42
2018-07-27T03:53:45.825Z,3.50
2018-07-27T03:54:19.322Z,3.52
2018-07-27T03:54:52.855Z,3.40
2018-07-27T03:55:26.375Z,3.70
2018-07-27T03:55:59.935Z,3.62
2018-07-27T03:56:37.791Z,3.50
2018-07-27T03:57:13.013Z,3.98
2018-07-27T03:57:46.727Z,4.03
2018-07-27T03:58:20.249Z,3.98
2018-07-27T03:58:53.851Z,3.70
2018-07-27T03:59:27.405Z,3.72
2018-07-27T04:00:00.975Z,3.33
2018-07-27T04:00:34.531Z,3.60
2018-07-27T04:01:08.103Z,3.35
2018-07-27T04:01:41.650Z,4.12
2018-07-27T04:02:15.292Z,3.80
2018-07-27T04:02:48.817Z,3.73
2018-07-27T04:03:23.040Z,3.92
2018-07-27T04:03:56.599Z,3.60
2018-07-27T04:04:30.708Z,3.58
2018-07-27T04:05:04.467Z,3.90
2018-07-27T04:05:38.002Z,3.87
2018-07-27T04:06:11.619Z,3.47
2018-07-27T04:06:45.204Z,3.72
2018-07-27T04:07:18.842Z,3.85
2018-07-27T04:07:52.792Z,3.67
2018-07-27T04:08:26.301Z,3.40
2018-07-27T04:08:59.877Z,3.77
2018-07-27T04:09:33.450Z,3.40
2018-07-27T04:10:07.767Z,3.47
2018-07-27T04:10:41.393Z,3.85
2018-07-27T04:11:14.979Z,3.60
2018-07-27T04:11:48.543Z,3.70
2018-07-27T04:12:24.235Z,3.95
2018-07-27T04:12:57.784Z,4.05
2018-07-27T04:13:31.296Z,4.05
2018-07-27T04:14:04.890Z,4.00
2018-07-27T04:14:39.089Z,3.87
2018-07-27T04:15:12.663Z,3.83
2018-07-27T04:15:46.228Z,3.65
2018-07-27T04:16:20.333Z,3.33
2018-07-27T04:16:53.855Z,3.77
2018-07-27T04:17:27.415Z,3.52
2018-07-27T04:18:01.904Z,3.75
2018-07-27T04:18:35.435Z,3.87
2018-07-27T04:19:08.985Z,3.67
2018-07-27T04:19:42.512Z,3.80
2018-07-27T04:20:16.056Z,4.03
2018-07-27T04:20:49.589Z,4.30
2018-07-27T04:21:23.175Z,3.85
2018-07-27T04:21:56.769Z,4.37
2018-07-27T04:22:30.401Z,3.62
2018-07-27T04:23:03.978Z,3.80
2018-07-27T04:23:37.547Z,4.00
2018-07-27T04:24:11.088Z,3.98
2018-07-27T04:24:44.651Z,3.70
2018-07-27T04:25:18.222Z,4.12
2018-07-27T04:25:51.702Z,4.42
2018-07-27T04:26:25.197Z,4.15
2018-07-27T04:26:58.689Z,3.65
2018-07-27T04:27:32.235Z,3.83
2018-07-27T04:28:05.812Z,4.40
2018-07-27T04:28:39.347Z,4.15
2018-07-27T04:29:12.886Z,3.95
2018-07-27T04:29:46.428Z,4.40
2018-07-27T04:30:20.763Z,4.60
2018-07-27T04:30:54.332Z,4.33
2018-07-27T04:31:27.888Z,4.22
2018-07-27T04:32:01.401Z,3.70
2018-07-27T04:32:35.041Z,4.17
2018-07-27T04:33:08.258Z,4.25
2018-07-27T04:33:41.799Z,4.05
2018-07-27T04:34:15.387Z,5.12
2018-07-27T04:34:48.943Z,4.53
2018-07-27T04:35:22.519Z,4.92
2018-07-27T04:35:56.136Z,4.40
2018-07-27T04:36:29.636Z,4.75
2018-07-27T04:37:03.223Z,4.80
2018-07-27T04:37:36.787Z,4.40
2018-07-27T04:38:10.319Z,4.47
2018-07-27T04:38:43.900Z,4.10
2018-07-27T04:39:17.442Z,4.90
2018-07-27T04:39:51.037Z,4.60
2018-07-27T04:40:24.598Z,4.30
2018-07-27T04:40:58.155Z,3.92
2018-07-27T04:41:31.678Z,4.15
2018-07-27T04:42:06.028Z,4.03
2018-07-27T04:42:39.787Z,4.90
2018-07-27T04:43:13.359Z,4.25
2018-07-27T04:43:46.853Z,4.10
2018-07-27T04:44:20.438Z,4.37
2018-07-27T04:44:54.033Z,4.30
2018-07-27T04:45:27.605Z,4.25
2018-07-27T04:46:01.508Z,4.00
2018-07-27T04:46:35.051Z,4.28
2018-07-27T04:47:08.622Z,4.08
2018-07-27T04:47:42.160Z,4.25
2018-07-27T04:48:15.696Z,3.98
2018-07-27T04:48:48.952Z,4.20
2018-07-27T04:49:22.586Z,4.28
2018-07-27T04:49:56.298Z,4.05
2018-07-27T04:50:29.964Z,4.40
2018-07-27T04:51:03.146Z,4.12
2018-07-27T04:51:36.927Z,4.25
2018-07-27T04:52:10.615Z,4.05
2018-07-27T04:52:44.133Z,4.40
2018-07-27T04:53:18.413Z,4.12
2018-07-27T04:53:52.474Z,4.12
2018-07-27T04:54:25.990Z,4.30
2018-07-27T04:54:59.629Z,4.12
2018-07-27T04:55:33.219Z,3.92
2018-07-27T04:56:06.892Z,4.53
2018-07-27T04:56:40.714Z,4.70
2018-07-27T04:57:14.353Z,4.30
2018-07-27T04:57:47.920Z,4.30
2018-07-27T04:58:21.493Z,4.40
2018-07-27T04:58:55.083Z,4.20
2018-07-27T04:59:28.625Z,3.95
2018-07-27T05:00:02.420Z,3.90
2018-07-27T05:00:36.048Z,3.98
2018-07-27T05:01:09.763Z,4.05
2018-07-27T05:01:43.299Z,4.03
2018-07-27T05:02:16.909Z,4.03
2018-07-27T05:02:50.488Z,4.23
2018-07-27T05:03:24.074Z,5.20
2018-07-27T05:03:57.584Z,4.62
2018-07-27T05:04:31.374Z,4.60
2018-07-27T05:05:04.603Z,6.12
2018-07-27T05:05:38.188Z,5.62
2018-07-27T05:06:11.715Z,4.87
2018-07-27T05:06:46.853Z,4.30
2018-07-27T05:07:20.415Z,4.25
2018-07-27T05:07:53.968Z,3.80
2018-07-27T05:08:27.619Z,4.42
2018-07-27T05:09:06.324Z,4.50
2018-07-27T05:09:39.547Z,4.30
2018-07-27T05:10:18.508Z,4.58
2018-07-27T05:10:52.093Z,4.30
2018-07-27T05:11:26.144Z,4.40
2018-07-27T05:11:59.615Z,5.22
2018-07-27T05:12:33.192Z,6.58
2018-07-27T05:13:07.555Z,4.62
2018-07-27T05:13:41.111Z,5.00
2018-07-27T05:14:15.935Z,4.75
2018-07-27T05:14:49.495Z,6.20
2018-07-27T05:15:23.133Z,5.80
2018-07-27T05:15:56.711Z,5.00
2018-07-27T05:16:30.424Z,4.53
2018-07-27T05:17:04.049Z,4.50
2018-07-27T05:17:37.639Z,4.50
2018-07-27T05:18:11.252Z,4.35
2018-07-27T05:18:45.659Z,4.27
2018-07-27T05:19:19.182Z,4.47
2018-07-27T05:19:52.728Z,4.45
2018-07-27T05:20:26.235Z,4.28
2018-07-27T05:20:59.807Z,4.72
2018-07-27T05:21:33.364Z,4.50
2018-07-27T05:22:06.918Z,4.37
2018-07-27T05:22:40.484Z,4.60
2018-07-27T05:23:14.500Z,4.15
2018-07-27T05:23:48.054Z,4.25
2018-07-27T05:24:21.622Z,4.47
2018-07-27T05:24:55.136Z,4.33
2018-07-27T05:25:28.676Z,4.65
2018-07-27T05:26:02.229Z,4.58
2018-07-27T05:26:35.854Z,4.83
2018-07-27T05:27:09.428Z,4.75
2018-07-27T05:27:43.008Z,4.55
2018-07-27T05:28:16.543Z,5.10
2018-07-27T05:28:50.110Z,4.50
2018-07-27T05:29:23.678Z,5.20
2018-07-27T05:29:57.824Z,4.60
2018-07-27T05:30:31.424Z,4.62
2018-07-27T05:31:05.028Z,4.47
2018-07-27T05:31:38.577Z,4.67
2018-07-27T05:32:12.132Z,4.60
2018-07-27T05:32:45.346Z,4.80
2018-07-27T05:33:18.918Z,4.47
2018-07-27T05:33:52.783Z,4.42
2018-07-27T05:34:26.403Z,4.40
2018-07-27T05:35:00.000Z,4.50
2018-07-27T05:35:33.565Z,4.92
2018-07-27T05:36:07.381Z,4.90
2018-07-27T05:36:40.908Z,4.67
2018-07-27T05:37:14.472Z,4.92
2018-07-27T05:37:48.023Z,5.00
2018-07-27T05:38:21.576Z,5.17
2018-07-27T05:38:55.140Z,4.63
2018-07-27T05:39:28.748Z,4.65
2018-07-27T05:40:02.283Z,4.83
2018-07-27T05:40:36.141Z,4.83
2018-07-27T05:41:09.674Z,4.62
2018-07-27T05:41:43.269Z,4.80
2018-07-27T05:42:16.873Z,5.10
2018-07-27T05:42:51.455Z,4.70
2018-07-27T05:43:24.993Z,4.60
2018-07-27T05:43:58.524Z,4.70
2018-07-27T05:44:32.113Z,5.12
2018-07-27T05:45:06.564Z,4.97
2018-07-27T05:45:40.080Z,5.42
2018-07-27T05:46:13.682Z,4.65
2018-07-27T05:46:47.421Z,5.20
2018-07-27T05:47:20.939Z,5.00
2018-07-27T05:47:54.460Z,5.03
2018-07-27T05:48:28.048Z,5.03
2018-07-27T05:49:01.731Z,5.03
2018-07-27T05:49:35.254Z,5.17
2018-07-27T05:50:08.834Z,5.10
2018-07-27T05:50:42.393Z,4.80
2018-07-27T05:51:16.015Z,4.72
2018-07-27T05:51:49.585Z,5.12
2018-07-27T05:52:23.121Z,5.30
2018-07-27T05:52:56.623Z,4.67
2018-07-27T05:53:30.132Z,4.95
2018-07-27T05:54:03.801Z,4.87
2018-07-27T05:54:38.208Z,4.90
2018-07-27T05:55:11.754Z,5.25
2018-07-27T05:55:45.282Z,5.30
2018-07-27T05:56:18.863Z,4.95
2018-07-27T05:56:52.399Z,5.00
2018-07-27T05:57:25.943Z,4.70
2018-07-27T05:57:59.522Z,5.03
2018-07-27T05:58:33.128Z,5.10
2018-07-27T05:59:06.688Z,5.33
2018-07-27T05:59:40.219Z,4.90
2018-07-27T06:00:13.817Z,4.58
2018-07-27T06:00:47.426Z,5.15
2018-07-27T06:01:20.993Z,4.87
2018-07-27T06:01:54.589Z,4.60
2018-07-27T06:02:28.119Z,4.83
2018-07-27T06:03:01.785Z,4.58
2018-07-27T06:03:35.307Z,4.95
2018-07-27T06:04:09.096Z,4.75
2018-07-27T06:04:42.665Z,4.87
2018-07-27T06:05:16.246Z,4.83
2018-07-27T06:05:50.355Z,4.83
2018-07-27T06:06:23.892Z,5.10
2018-07-27T06:06:57.528Z,5.03
2018-07-27T06:07:31.131Z,4.45
2018-07-27T06:08:04.803Z,4.97
2018-07-27T06:08:38.658Z,5.30
2018-07-27T06:09:12.464Z,4.60
2018-07-27T06:09:45.983Z,4.85
2018-07-27T06:10:19.628Z,4.80
2018-07-27T06:10:53.201Z,5.10
2018-07-27T06:11:26.885Z,5.30
2018-07-27T06:12:00.491Z,5.08
2018-07-27T06:12:34.011Z,7.83
2018-07-27T06:13:08.206Z,5.33
2018-07-27T06:13:41.769Z,4.72
2018-07-27T06:14:15.310Z,4.35
2018-07-27T06:14:48.883Z,4.80
2018-07-27T06:15:22.387Z,4.58
2018-07-27T06:15:56.000Z,4.47
2018-07-27T06:16:29.592Z,4.50
2018-07-27T06:17:03.172Z,4.72
2018-07-27T06:17:37.348Z,4.67
2018-07-27T06:18:11.118Z,4.75
2018-07-27T06:18:44.508Z,4.92
2018-07-27T06:19:18.040Z,5.35
2018-07-27T06:19:51.586Z,4.53
2018-07-27T06:20:25.268Z,5.10
2018-07-27T06:20:58.903Z,4.67
2018-07-27T06:21:33.148Z,5.20
2018-07-27T06:22:06.888Z,5.60
2018-07-27T06:22:40.507Z,5.08
2018-07-27T06:23:14.049Z,4.85
2018-07-27T06:23:47.674Z,5.30
2018-07-27T06:24:21.209Z,4.65
2018-07-27T06:24:55.711Z,4.80
2018-07-27T06:25:29.304Z,4.90
2018-07-27T06:26:03.323Z,5.42
2018-07-27T06:26:36.839Z,5.22
2018-07-27T06:27:10.383Z,5.12
2018-07-27T06:27:44.823Z,4.45
2018-07-27T06:28:18.768Z,4.90
2018-07-27T06:28:52.663Z,5.30
2018-07-27T06:29:26.152Z,5.10
2018-07-27T06:29:59.705Z,5.05
2018-07-27T06:30:33.300Z,5.17
2018-07-27T06:31:06.907Z,5.40
2018-07-27T06:31:40.484Z,4.75
2018-07-27T06:32:14.569Z,5.33
2018-07-27T06:32:48.084Z,4.87
2018-07-27T06:33:21.648Z,5.05
2018-07-27T06:33:55.162Z,4.47
2018-07-27T06:34:28.336Z,5.08
2018-07-27T06:35:01.528Z,5.20
2018-07-27T06:35:35.135Z,5.10
2018-07-27T06:36:08.714Z,4.97
2018-07-27T06:36:42.322Z,5.12
2018-07-27T06:37:16.008Z,4.62
2018-07-27T06:37:49.547Z,4.92
2018-07-27T06:38:23.186Z,4.95
2018-07-27T06:38:56.771Z,5.10
2018-07-27T06:39:30.327Z,5.22
2018-07-27T06:40:04.003Z,5.10
2018-07-27T06:40:37.566Z,5.30
2018-07-27T06:41:11.182Z,5.50
2018-07-27T06:41:44.727Z,4.75
2018-07-27T06:42:18.239Z,5.67
2018-07-27T06:42:51.842Z,5.13
2018-07-27T06:43:25.442Z,5.00
2018-07-27T06:43:58.988Z,4.78
2018-07-27T06:44:33.421Z,5.17
2018-07-27T06:45:07.387Z,4.20
2018-07-27T06:45:40.907Z,5.03
2018-07-27T06:46:14.428Z,5.10
2018-07-27T06:46:48.327Z,4.80
2018-07-27T06:47:21.881Z,4.83
2018-07-27T06:47:55.413Z,5.20
2018-07-27T06:48:29.521Z,5.08
2018-07-27T06:49:03.063Z,5.10
2018-07-27T06:49:36.602Z,4.97
2018-07-27T06:50:10.141Z,4.80
2018-07-27T06:50:43.674Z,4.87
2018-07-27T06:51:17.807Z,5.03
2018-07-27T06:51:51.654Z,5.15
2018-07-27T06:52:25.264Z,5.25
2018-07-27T06:52:58.875Z,5.05
2018-07-27T06:53:32.446Z,4.80
2018-07-27T06:54:06.431Z,5.22
2018-07-27T06:54:39.995Z,5.78
2018-07-27T06:55:13.557Z,5.55
2018-07-27T06:55:47.157Z,4.70
2018-07-27T06:56:20.728Z,5.28
2018-07-27T06:56:54.324Z,5.63
2018-07-27T06:57:27.892Z,5.50
2018-07-27T06:58:01.427Z,5.10
2018-07-27T06:58:35.005Z,5.15
2018-07-27T06:59:08.555Z,5.28
2018-07-27T06:59:42.098Z,5.60
2018-07-27T07:00:15.658Z,5.08
2018-07-27T07:00:49.223Z,5.47
2018-07-27T07:01:22.800Z,4.95
2018-07-27T07:01:56.405Z,5.70
2018-07-27T07:02:29.972Z,5.12
2018-07-27T07:03:03.640Z,4.85
2018-07-27T07:03:37.217Z,4.85
2018-07-27T07:04:10.799Z,4.60
2018-07-27T07:04:44.978Z,5.30
2018-07-27T07:05:18.561Z,5.05
2018-07-27T07:05:52.592Z,4.87
2018-07-27T07:06:27.328Z,4.95
2018-07-27T07:07:00.928Z,4.92
2018-07-27T07:07:34.157Z,5.00
2018-07-27T07:08:08.239Z,4.70
2018-07-27T07:08:41.939Z,5.72
2018-07-27T07:09:15.474Z,5.45
2018-07-27T07:09:49.048Z,5.03
2018-07-27T07:10:22.639Z,4.78
2018-07-27T07:10:56.267Z,4.77
2018-07-27T07:11:29.865Z,4.42
2018-07-27T07:12:03.401Z,5.08
2018-07-27T07:12:37.196Z,5.10
2018-07-27T07:13:10.864Z,4.90
2018-07-27T07:13:44.452Z,5.35
2018-07-27T07:14:18.010Z,5.30
2018-07-27T07:14:51.521Z,5.33
2018-07-27T07:15:26.049Z,4.90
2018-07-27T07:15:59.678Z,4.97
2018-07-27T07:16:33.682Z,5.22
2018-07-27T07:17:07.596Z,4.47
2018-07-27T07:17:41.208Z,4.70
2018-07-27T07:18:14.739Z,5.40
2018-07-27T07:18:48.303Z,5.28
2018-07-27T07:19:21.875Z,5.25
2018-07-27T07:19:55.994Z,5.40
2018-07-27T07:20:29.604Z,5.55
2018-07-27T07:21:03.141Z,5.17
2018-07-27T07:21:37.220Z,5.17
2018-07-27T07:22:10.718Z,5.12
2018-07-27T07:22:44.216Z,5.30
2018-07-27T07:23:17.824Z,5.30
2018-07-27T07:23:51.408Z,4.87
2018-07-27T07:24:24.995Z,5.10
2018-07-27T07:24:58.564Z,5.10
2018-07-27T07:25:32.196Z,4.95
2018-07-27T07:26:06.068Z,5.20
2018-07-27T07:26:39.295Z,5.25
2018-07-27T07:27:12.881Z,5.17
2018-07-27T07:27:46.708Z,5.33
2018-07-27T07:28:20.191Z,4.90